createdAt,value
2018-03-23T00:00:16.046Z,89.50
2018-03-23T00:01:05.572Z,89.40
2018-03-23T00:02:05.437Z,89.40
2018-03-23T00:03:06.134Z,89.40
2018-03-23T00:04:05.620Z,89.50
2018-03-23T00:05:05.744Z,89.40
2018-03-23T00:06:05.589Z,89.50
2018-03-23T00:07:06.182Z,89.40
2018-03-23T00:08:06.256Z,89.40
2018-03-23T00:09:11.318Z,89.50
2018-03-23T00:10:05.687Z,89.50
2018-03-23T00:11:06.345Z,89.50
2018-03-23T00:12:06.021Z,89.50
2018-03-23T00:13:05.591Z,89.50
2018-03-23T00:14:10.723Z,89.50
2018-03-23T00:15:13.834Z,89.50
2018-03-23T00:16:06.467Z,89.50
2018-03-23T00:17:05.794Z,89.40
2018-03-23T00:18:10.685Z,89.50
2018-03-23T00:19:06.032Z,89.40
2018-03-23T00:20:09.482Z,89.50
2018-03-23T00:21:09.684Z,89.50
2018-03-23T00:22:05.424Z,89.50
2018-03-23T00:23:05.573Z,89.50
2018-03-23T00:24:09.226Z,89.50
2018-03-23T00:25:05.864Z,89.50
2018-03-23T00:26:06.018Z,89.40
2018-03-23T00:27:13.620Z,89.40
2018-03-23T00:28:08.590Z,89.50
2018-03-23T00:29:13.866Z,89.50
2018-03-23T00:30:08.845Z,89.40
2018-03-23T00:31:06.351Z,89.50
2018-03-23T00:32:05.931Z,89.60
2018-03-23T00:33:06.274Z,89.50
2018-03-23T00:34:05.868Z,89.40
2018-03-23T00:35:06.354Z,89.40
2018-03-23T00:36:11.352Z,89.50
2018-03-23T00:37:06.209Z,89.50
2018-03-23T00:38:05.812Z,89.50
2018-03-23T00:39:11.032Z,89.50
2018-03-23T00:40:06.263Z,89.50
2018-03-23T00:41:06.001Z,89.50
2018-03-23T00:42:05.526Z,89.50
2018-03-23T00:43:08.513Z,89.50
2018-03-23T00:44:05.956Z,89.50
2018-03-23T00:45:08.903Z,89.50
2018-03-23T00:46:09.012Z,89.50
2018-03-23T00:47:05.820Z,89.50
2018-03-23T00:48:05.453Z,89.50
2018-03-23T00:49:10.672Z,89.60
2018-03-23T00:50:05.798Z,89.70
2018-03-23T00:51:06.594Z,89.70
2018-03-23T00:52:06.496Z,89.70
2018-03-23T00:53:06.307Z,89.70
2018-03-23T00:54:06.386Z,89.70
2018-03-23T00:55:05.985Z,89.70
2018-03-23T00:56:08.391Z,89.70
2018-03-23T00:57:06.165Z,89.70
2018-03-23T00:58:05.742Z,89.70
2018-03-23T00:59:10.149Z,89.70
2018-03-23T01:00:05.768Z,89.70
2018-03-23T01:01:05.822Z,89.70
2018-03-23T01:02:05.555Z,89.70
2018-03-23T01:03:11.401Z,89.70
2018-03-23T01:04:05.815Z,89.60
2018-03-23T01:05:05.555Z,89.70
2018-03-23T01:06:05.815Z,89.70
2018-03-23T01:07:06.334Z,89.70
2018-03-23T01:08:05.980Z,89.70
2018-03-23T01:09:05.523Z,89.70
2018-03-23T01:10:06.032Z,89.90
2018-03-23T01:11:06.404Z,89.80
2018-03-23T01:12:11.127Z,89.80
2018-03-23T01:13:05.633Z,89.80
2018-03-23T01:14:06.073Z,89.70
2018-03-23T01:15:05.981Z,89.90
2018-03-23T01:16:06.386Z,89.90
2018-03-23T01:17:13.634Z,89.90
2018-03-23T01:18:06.305Z,89.70
2018-03-23T01:19:06.542Z,89.90
2018-03-23T01:20:06.178Z,89.70
2018-03-23T01:21:10.729Z,89.90
2018-03-23T01:22:09.916Z,89.70
2018-03-23T01:23:09.826Z,89.90
2018-03-23T01:24:06.548Z,89.90
2018-03-23T01:25:06.469Z,89.80
2018-03-23T01:26:06.607Z,89.90
2018-03-23T01:27:06.429Z,89.80
2018-03-23T01:28:06.138Z,89.80
2018-03-23T01:29:09.109Z,89.90
2018-03-23T01:30:08.260Z,89.90
2018-03-23T01:31:08.203Z,89.90
2018-03-23T01:32:09.218Z,89.90
2018-03-23T01:33:05.941Z,89.90
2018-03-23T01:34:08.222Z,89.90
2018-03-23T01:35:05.928Z,90.00
2018-03-23T01:36:08.399Z,89.90
2018-03-23T01:37:09.394Z,89.90
2018-03-23T01:38:05.912Z,89.90
2018-03-23T01:39:06.532Z,89.90
2018-03-23T01:40:06.166Z,89.90
2018-03-23T01:41:13.140Z,89.90
2018-03-23T01:42:05.486Z,89.90
2018-03-23T01:43:10.713Z,90.00
2018-03-23T01:44:06.132Z,90.00
2018-03-23T01:45:06.013Z,90.00
2018-03-23T01:46:05.715Z,90.00
2018-03-23T01:47:11.320Z,90.00
2018-03-23T01:48:10.762Z,90.00
2018-03-23T01:49:06.380Z,90.00
2018-03-23T01:50:06.196Z,90.00
2018-03-23T01:51:05.797Z,90.00
2018-03-23T01:52:08.080Z,90.00
2018-03-23T01:53:05.543Z,90.00
2018-03-23T01:54:05.874Z,90.00
2018-03-23T01:55:05.508Z,90.00
2018-03-23T01:56:06.136Z,90.00
2018-03-23T01:57:10.577Z,90.00
2018-03-23T01:58:05.806Z,90.00
2018-03-23T01:59:09.331Z,90.00
2018-03-23T02:00:06.023Z,90.00
2018-03-23T02:01:05.778Z,90.00
2018-03-23T02:02:06.257Z,90.00
2018-03-23T02:03:06.360Z,90.00
2018-03-23T02:04:09.302Z,90.10
2018-03-23T02:05:05.771Z,90.10
2018-03-23T02:06:06.501Z,90.10
2018-03-23T02:07:06.481Z,90.10
2018-03-23T02:08:06.001Z,90.10
2018-03-23T02:09:08.207Z,90.10
2018-03-23T02:10:08.184Z,90.10
2018-03-23T02:11:10.720Z,90.10
2018-03-23T02:12:09.154Z,90.10
2018-03-23T02:13:05.668Z,90.10
2018-03-23T02:14:06.039Z,90.10
2018-03-23T02:15:08.313Z,90.10
2018-03-23T02:16:08.192Z,90.10
2018-03-23T02:17:05.542Z,90.10
2018-03-23T02:18:11.227Z,90.00
2018-03-23T02:19:06.444Z,90.10
2018-03-23T02:20:10.832Z,90.20
2018-03-23T02:21:06.222Z,90.00
2018-03-23T02:22:05.866Z,90.20
2018-03-23T02:23:08.943Z,90.20
2018-03-23T02:24:06.376Z,90.00
2018-03-23T02:25:06.396Z,90.00
2018-03-23T02:26:10.684Z,90.20
2018-03-23T02:27:06.050Z,90.20
2018-03-23T02:28:05.895Z,90.20
2018-03-23T02:29:05.558Z,90.20
2018-03-23T02:30:08.743Z,90.20
2018-03-23T02:31:11.222Z,90.20
2018-03-23T02:32:06.494Z,90.20
2018-03-23T02:33:08.523Z,90.20
2018-03-23T02:34:06.060Z,90.20
2018-03-23T02:35:05.516Z,90.20
2018-03-23T02:36:06.399Z,90.20
2018-03-23T02:37:11.060Z,90.20
2018-03-23T02:38:09.179Z,90.20
2018-03-23T02:39:08.137Z,90.20
2018-03-23T02:40:08.164Z,90.20
2018-03-23T02:41:08.691Z,90.20
2018-03-23T02:42:09.421Z,90.10
2018-03-23T02:43:12.021Z,90.10
2018-03-23T02:44:10.523Z,90.10
2018-03-23T02:45:06.451Z,90.10
2018-03-23T02:46:09.466Z,90.10
2018-03-23T02:47:09.464Z,90.10
2018-03-23T02:48:06.245Z,90.10
2018-03-23T02:49:10.990Z,90.10
2018-03-23T02:50:08.589Z,90.10
2018-03-23T02:51:06.043Z,90.10
2018-03-23T02:52:05.926Z,90.20
2018-03-23T02:53:11.033Z,90.10
2018-03-23T02:54:09.589Z,90.10
2018-03-23T02:55:06.168Z,90.10
2018-03-23T02:56:06.023Z,90.10
2018-03-23T02:57:05.637Z,90.10
2018-03-23T02:58:05.814Z,90.00
2018-03-23T02:59:13.263Z,90.10
2018-03-23T03:00:05.821Z,90.10
2018-03-23T03:01:06.341Z,90.10
2018-03-23T03:02:11.435Z,90.10
2018-03-23T03:03:06.451Z,90.10
2018-03-23T03:04:18.865Z,90.10
2018-03-23T03:05:06.383Z,90.10
2018-03-23T03:06:09.039Z,90.10
2018-03-23T03:07:08.135Z,90.20
2018-03-23T03:08:05.658Z,90.10
2018-03-23T03:09:11.330Z,90.30
2018-03-23T03:10:11.445Z,90.20
2018-03-23T03:11:05.917Z,90.20
2018-03-23T03:12:05.879Z,90.20
2018-03-23T03:13:08.799Z,90.20
2018-03-23T03:14:06.249Z,90.30
2018-03-23T03:15:05.959Z,90.30
2018-03-23T03:16:08.056Z,90.20
2018-03-23T03:17:05.589Z,90.20
2018-03-23T03:18:05.735Z,90.20
2018-03-23T03:19:06.585Z,90.20
2018-03-23T03:20:08.801Z,90.30
2018-03-23T03:21:06.191Z,90.30
2018-03-23T03:22:05.483Z,90.20
2018-03-23T03:23:06.371Z,90.20
2018-03-23T03:24:06.302Z,90.30
2018-03-23T03:25:08.968Z,90.20
2018-03-23T03:26:06.638Z,90.20
2018-03-23T03:27:06.163Z,90.20
2018-03-23T03:28:08.994Z,90.30
2018-03-23T03:29:11.494Z,90.30
2018-03-23T03:30:08.340Z,90.30
2018-03-23T03:31:05.807Z,90.40
2018-03-23T03:32:05.868Z,90.30
2018-03-23T03:33:10.921Z,90.30
2018-03-23T03:34:06.370Z,90.40
2018-03-23T03:35:06.300Z,90.30
2018-03-23T03:36:08.246Z,90.30
2018-03-23T03:37:05.670Z,90.30
2018-03-23T03:38:09.558Z,90.30
2018-03-23T03:39:05.938Z,90.40
2018-03-23T03:40:05.728Z,90.30
2018-03-23T03:41:06.268Z,90.30
2018-03-23T03:42:05.468Z,90.30
2018-03-23T03:43:06.107Z,90.30
2018-03-23T03:44:06.590Z,90.30
2018-03-23T03:45:06.769Z,90.30
2018-03-23T03:46:05.980Z,90.30
2018-03-23T03:47:10.975Z,90.30
2018-03-23T03:48:06.322Z,90.30
2018-03-23T03:49:06.064Z,90.30
2018-03-23T03:50:08.173Z,90.30
2018-03-23T03:51:09.130Z,90.30
2018-03-23T03:52:05.803Z,90.30
2018-03-23T03:53:06.627Z,90.30
2018-03-23T03:54:09.305Z,90.40
2018-03-23T03:55:06.094Z,90.40
2018-03-23T03:56:11.241Z,90.40
2018-03-23T03:57:11.416Z,90.40
2018-03-23T03:58:05.744Z,90.40
2018-03-23T03:59:05.763Z,90.40
2018-03-23T04:00:05.990Z,90.30
2018-03-23T04:01:13.105Z,90.40
2018-03-23T04:02:05.607Z,90.40
2018-03-23T04:03:06.014Z,90.40
2018-03-23T04:04:06.438Z,90.40
2018-03-23T04:05:11.087Z,90.40
2018-03-23T04:06:09.495Z,90.40
2018-03-23T04:07:10.922Z,90.40
2018-03-23T04:08:09.942Z,90.40
2018-03-23T04:09:05.684Z,90.40
2018-03-23T04:10:06.465Z,90.40
2018-03-23T04:11:09.554Z,90.40
2018-03-23T04:12:06.296Z,90.40
2018-03-23T04:13:10.829Z,90.40
2018-03-23T04:14:05.878Z,90.40
2018-03-23T04:15:05.659Z,90.40
2018-03-23T04:16:10.691Z,90.40
2018-03-23T04:17:08.442Z,90.40
2018-03-23T04:18:11.000Z,90.40
2018-03-23T04:19:06.469Z,90.40
2018-03-23T04:20:08.933Z,90.40
2018-03-23T04:21:08.926Z,90.40
2018-03-23T04:22:11.409Z,90.40
2018-03-23T04:23:05.822Z,90.40
2018-03-23T04:24:10.726Z,90.40
2018-03-23T04:25:06.301Z,90.40
2018-03-23T04:26:05.922Z,90.40
2018-03-23T04:27:06.126Z,90.40
2018-03-23T04:28:06.309Z,90.40
2018-03-23T04:29:06.068Z,90.40
2018-03-23T04:30:08.027Z,90.40
2018-03-23T04:31:08.793Z,90.40
2018-03-23T04:32:06.224Z,90.40
2018-03-23T04:33:05.974Z,90.40
2018-03-23T04:34:05.580Z,90.40
2018-03-23T04:35:11.146Z,90.50
2018-03-23T04:36:09.905Z,90.50
2018-03-23T04:37:08.275Z,90.50
2018-03-23T04:38:05.743Z,90.50
2018-03-23T04:39:05.822Z,90.50
2018-03-23T04:40:06.435Z,90.50
2018-03-23T04:41:07.220Z,90.50
2018-03-23T04:42:06.121Z,90.50
2018-03-23T04:43:06.170Z,90.50
2018-03-23T04:44:11.130Z,90.50
2018-03-23T04:45:10.632Z,90.50
2018-03-23T04:46:05.878Z,90.50
2018-03-23T04:47:10.604Z,90.50
2018-03-23T04:48:06.083Z,90.50
2018-03-23T04:49:05.745Z,90.50
2018-03-23T04:50:05.593Z,90.50
2018-03-23T04:51:11.235Z,90.50
2018-03-23T04:52:06.925Z,90.50
2018-03-23T04:53:06.504Z,90.50
2018-03-23T04:54:09.505Z,90.50
2018-03-23T04:55:05.995Z,90.50
2018-03-23T04:56:08.856Z,90.50
2018-03-23T04:57:06.383Z,90.50
2018-03-23T04:58:05.896Z,90.50
2018-03-23T04:59:05.800Z,90.50
2018-03-23T05:00:10.628Z,90.50
2018-03-23T05:01:11.146Z,90.50
2018-03-23T05:02:05.944Z,90.50
2018-03-23T05:03:05.529Z,90.50
2018-03-23T05:04:07.938Z,90.60
2018-03-23T05:05:06.625Z,90.50
2018-03-23T05:06:08.733Z,90.50
2018-03-23T05:07:09.944Z,90.50
2018-03-23T05:08:10.753Z,90.50
2018-03-23T05:09:05.898Z,90.50
2018-03-23T05:10:08.807Z,90.50
2018-03-23T05:11:06.367Z,90.50
2018-03-23T05:12:08.826Z,90.60
2018-03-23T05:13:08.858Z,90.50
2018-03-23T05:14:06.299Z,90.50
2018-03-23T05:15:06.174Z,90.50
2018-03-23T05:16:05.556Z,90.60
2018-03-23T05:17:08.795Z,90.60
2018-03-23T05:18:11.294Z,90.50
2018-03-23T05:19:05.764Z,90.60
2018-03-23T05:20:06.535Z,90.60
2018-03-23T05:21:06.093Z,90.60
2018-03-23T05:22:05.840Z,90.50
2018-03-23T05:23:06.467Z,90.60
2018-03-23T05:24:06.205Z,90.60
2018-03-23T05:25:11.322Z,90.60
2018-03-23T05:26:06.426Z,90.60
2018-03-23T05:27:06.265Z,90.60
2018-03-23T05:28:09.680Z,90.60
2018-03-23T05:29:06.348Z,90.60
2018-03-23T05:30:11.350Z,90.60
2018-03-23T05:31:14.984Z,90.60
2018-03-23T05:32:06.674Z,90.60
2018-03-23T05:33:08.876Z,90.70
2018-03-23T05:34:11.287Z,90.60
2018-03-23T05:35:06.004Z,90.60
2018-03-23T05:36:06.267Z,90.60
2018-03-23T05:37:06.191Z,90.60
2018-03-23T05:38:05.953Z,90.60
2018-03-23T05:39:10.767Z,90.60
2018-03-23T05:40:12.452Z,90.70
2018-03-23T05:41:10.729Z,90.70
2018-03-23T05:42:05.906Z,90.70
2018-03-23T05:43:08.787Z,90.70
2018-03-23T05:44:06.608Z,90.70
2018-03-23T05:45:05.872Z,90.70
2018-03-23T05:46:07.062Z,90.70
2018-03-23T05:47:10.983Z,90.70
2018-03-23T05:48:06.456Z,90.70
2018-03-23T05:49:06.145Z,90.60
2018-03-23T05:50:11.453Z,90.70
2018-03-23T05:51:08.738Z,90.70
2018-03-23T05:52:06.189Z,90.80
2018-03-23T05:53:06.220Z,90.80
2018-03-23T05:54:06.674Z,90.80
2018-03-23T05:55:06.227Z,90.80
2018-03-23T05:56:06.022Z,90.80
2018-03-23T05:57:08.741Z,90.80
2018-03-23T05:58:06.330Z,90.70
2018-03-23T05:59:08.755Z,90.80
2018-03-23T06:00:11.285Z,90.80
2018-03-23T06:01:05.847Z,90.80
2018-03-23T06:02:06.088Z,90.80
2018-03-23T06:03:08.184Z,90.90
2018-03-23T06:04:05.620Z,90.80
2018-03-23T06:05:05.550Z,90.80
2018-03-23T06:06:06.206Z,90.80
2018-03-23T06:07:05.857Z,90.80
2018-03-23T06:08:10.690Z,90.80
2018-03-23T06:09:09.450Z,90.80
2018-03-23T06:10:06.168Z,90.80
2018-03-23T06:11:08.717Z,90.80
2018-03-23T06:12:07.232Z,90.80
2018-03-23T06:13:10.864Z,90.80
2018-03-23T06:14:06.523Z,90.80
2018-03-23T06:15:11.119Z,90.80
2018-03-23T06:16:06.380Z,90.80
2018-03-23T06:17:08.872Z,90.80
2018-03-23T06:18:11.452Z,90.80
2018-03-23T06:19:10.738Z,90.80
2018-03-23T06:20:06.266Z,90.80
2018-03-23T06:21:06.064Z,90.80
2018-03-23T06:22:05.661Z,90.80
2018-03-23T06:23:06.215Z,90.80
2018-03-23T06:24:11.018Z,90.80
2018-03-23T06:25:11.256Z,90.80
2018-03-23T06:26:10.835Z,90.90
2018-03-23T06:27:08.380Z,90.90
2018-03-23T06:28:06.745Z,90.90
2018-03-23T06:29:06.234Z,90.80
2018-03-23T06:30:08.263Z,91.00
2018-03-23T06:31:14.250Z,91.00
2018-03-23T06:32:10.676Z,91.00
2018-03-23T06:33:06.129Z,91.00
2018-03-23T06:34:13.132Z,91.00
2018-03-23T06:35:05.447Z,91.00
2018-03-23T06:36:06.113Z,91.00
2018-03-23T06:37:05.756Z,91.00
2018-03-23T06:38:05.729Z,91.00
2018-03-23T06:39:13.741Z,91.00
2018-03-23T06:40:06.224Z,91.00
2018-03-23T06:41:05.804Z,91.00
2018-03-23T06:42:11.377Z,91.10
2018-03-23T06:43:08.825Z,91.10
2018-03-23T06:44:11.274Z,91.10
2018-03-23T06:45:06.434Z,91.10
2018-03-23T06:46:05.981Z,91.00
2018-03-23T06:47:06.182Z,91.10
2018-03-23T06:48:05.685Z,91.00
2018-03-23T06:49:05.914Z,91.00
2018-03-23T06:50:06.367Z,91.00
2018-03-23T06:51:06.256Z,91.10
2018-03-23T06:52:05.745Z,91.00
2018-03-23T06:53:05.951Z,91.00
2018-03-23T06:54:08.387Z,91.00
2018-03-23T06:55:06.026Z,91.00
2018-03-23T06:56:06.169Z,91.00
2018-03-23T06:57:05.794Z,91.00
2018-03-23T06:58:06.730Z,91.10
2018-03-23T06:59:09.170Z,91.10
2018-03-23T07:00:08.193Z,91.10
2018-03-23T07:01:08.880Z,91.10
2018-03-23T07:02:10.940Z,91.10
2018-03-23T07:03:06.414Z,91.10
2018-03-23T07:04:05.672Z,91.10
2018-03-23T07:05:05.501Z,91.00
2018-03-23T07:06:08.720Z,91.10
2018-03-23T07:07:06.296Z,91.10
2018-03-23T07:08:06.323Z,91.10
2018-03-23T07:09:06.245Z,91.10
2018-03-23T07:10:11.187Z,91.10
2018-03-23T07:11:09.312Z,91.10
2018-03-23T07:12:06.174Z,91.10
2018-03-23T07:13:06.156Z,91.10
2018-03-23T07:14:08.459Z,91.10
2018-03-23T07:15:09.443Z,91.10
2018-03-23T07:16:06.238Z,91.10
2018-03-23T07:17:10.850Z,91.10
2018-03-23T07:18:06.254Z,91.10
2018-03-23T07:19:08.448Z,91.10
2018-03-23T07:20:05.494Z,91.10
2018-03-23T07:21:05.739Z,91.10
2018-03-23T07:22:06.471Z,91.10
2018-03-23T07:23:09.526Z,91.10
2018-03-23T07:24:17.188Z,91.10
2018-03-23T07:25:05.872Z,91.10
2018-03-23T07:26:11.304Z,91.10
2018-03-23T07:27:11.409Z,91.10
2018-03-23T07:28:07.000Z,91.20
2018-03-23T07:29:05.713Z,91.10
2018-03-23T07:30:05.796Z,91.10
2018-03-23T07:31:11.066Z,91.10
2018-03-23T07:32:08.394Z,91.10
2018-03-23T07:33:05.976Z,91.10
2018-03-23T07:34:08.850Z,91.10
2018-03-23T07:35:06.346Z,91.10
2018-03-23T07:36:10.737Z,91.00
2018-03-23T07:37:06.109Z,91.00
2018-03-23T07:38:06.259Z,91.00
2018-03-23T07:39:05.907Z,91.00
2018-03-23T07:40:06.841Z,91.00
2018-03-23T07:41:06.396Z,91.10
2018-03-23T07:42:06.419Z,91.20
2018-03-23T07:43:10.299Z,91.20
2018-03-23T07:44:16.744Z,91.10
2018-03-23T07:45:08.822Z,91.10
2018-03-23T07:46:08.755Z,91.10
2018-03-23T07:47:06.453Z,91.10
2018-03-23T07:48:05.989Z,78.30
2018-03-23T07:49:05.977Z,91.10
2018-03-23T07:50:06.347Z,91.00
2018-03-23T07:51:08.921Z,91.10
2018-03-23T07:52:08.621Z,91.10
2018-03-23T07:53:18.496Z,91.10
2018-03-23T07:54:08.532Z,91.00
2018-03-23T07:55:13.612Z,91.10
2018-03-23T07:56:06.074Z,91.00
2018-03-23T07:57:06.713Z,91.10
2018-03-23T07:58:06.188Z,91.00
2018-03-23T07:59:05.615Z,91.00
2018-03-23T08:00:08.885Z,91.10
2018-03-23T08:01:06.529Z,91.10
2018-03-23T08:02:06.595Z,91.10
2018-03-23T08:03:06.132Z,91.00
2018-03-23T08:04:05.979Z,91.10
2018-03-23T08:05:06.523Z,91.20
2018-03-23T08:06:06.632Z,91.10
2018-03-23T08:07:05.939Z,91.10
2018-03-23T08:08:06.405Z,91.10
2018-03-23T08:09:05.553Z,91.10
2018-03-23T08:10:05.980Z,91.00
2018-03-23T08:11:08.858Z,91.10
2018-03-23T08:12:08.970Z,91.10
2018-03-23T08:13:06.506Z,91.10
2018-03-23T08:14:08.538Z,91.10
2018-03-23T08:15:06.043Z,91.10
2018-03-23T08:16:05.959Z,91.10
2018-03-23T08:17:11.128Z,91.00
2018-03-23T08:18:06.664Z,91.00
2018-03-23T08:19:09.580Z,91.10
2018-03-23T08:20:08.600Z,91.10
2018-03-23T08:21:06.145Z,91.10
2018-03-23T08:22:10.986Z,91.10
2018-03-23T08:23:05.969Z,91.10
2018-03-23T08:24:08.154Z,91.00
2018-03-23T08:25:05.687Z,91.00
2018-03-23T08:26:05.898Z,91.00
2018-03-23T08:27:06.621Z,91.10
2018-03-23T08:28:06.134Z,91.00
2018-03-23T08:29:09.789Z,91.00
2018-03-23T08:30:08.778Z,90.90
2018-03-23T08:31:08.829Z,90.90
2018-03-23T08:32:06.272Z,90.90
2018-03-23T08:33:06.101Z,90.90
2018-03-23T08:34:05.773Z,91.00
2018-03-23T08:35:11.582Z,90.90
2018-03-23T08:36:05.826Z,90.90
2018-03-23T08:37:05.752Z,90.90
2018-03-23T08:38:11.332Z,90.80
2018-03-23T08:39:05.744Z,90.80
2018-03-23T08:40:09.502Z,90.90
2018-03-23T08:41:08.501Z,90.90
2018-03-23T08:42:06.248Z,90.90
2018-03-23T08:43:13.634Z,90.90
2018-03-23T08:44:08.691Z,90.90
2018-03-23T08:45:09.763Z,91.00
2018-03-23T08:46:06.233Z,91.00
2018-03-23T08:47:06.101Z,90.90
2018-03-23T08:48:05.971Z,90.90
2018-03-23T08:49:09.119Z,90.90
2018-03-23T08:50:06.605Z,90.90
2018-03-23T08:51:11.132Z,90.90
2018-03-23T08:52:09.020Z,90.70
2018-03-23T08:53:05.575Z,90.70
2018-03-23T08:54:20.505Z,90.50
2018-03-23T08:55:08.533Z,90.40
2018-03-23T08:56:08.015Z,90.20
2018-03-23T08:57:06.099Z,90.00
2018-03-23T08:58:05.989Z,90.20
2018-03-23T08:59:08.508Z,90.00
2018-03-23T09:00:06.452Z,90.00
2018-03-23T09:01:11.270Z,89.80
2018-03-23T09:02:05.896Z,89.80
2018-03-23T09:03:05.672Z,89.70
2018-03-23T09:04:06.272Z,89.70
2018-03-23T09:05:08.663Z,89.50
2018-03-23T09:06:08.929Z,89.30
2018-03-23T09:07:06.643Z,89.30
2018-03-23T09:08:09.578Z,89.20
2018-03-23T09:09:11.059Z,89.00
2018-03-23T09:10:06.326Z,89.00
2018-03-23T09:11:06.622Z,88.60
2018-03-23T09:12:08.484Z,88.50
2018-03-23T09:13:05.986Z,88.50
2018-03-23T09:14:05.788Z,88.40
2018-03-23T09:15:06.264Z,88.40
2018-03-23T09:16:13.772Z,88.50
2018-03-23T09:17:08.768Z,88.50
2018-03-23T09:18:06.431Z,88.50
2018-03-23T09:19:10.788Z,88.50
2018-03-23T09:20:05.874Z,88.50
2018-03-23T09:21:06.246Z,88.50
2018-03-23T09:22:06.147Z,88.40
2018-03-23T09:23:11.474Z,88.40
2018-03-23T09:24:06.242Z,88.30
2018-03-23T09:25:05.662Z,88.50
2018-03-23T09:26:06.105Z,88.50
2018-03-23T09:27:08.818Z,88.30
2018-03-23T09:28:06.312Z,88.30
2018-03-23T09:29:06.602Z,88.30
2018-03-23T09:30:08.666Z,88.30
2018-03-23T09:31:13.838Z,88.30
2018-03-23T09:32:06.471Z,88.30
2018-03-23T09:33:06.315Z,88.20
2018-03-23T09:34:09.800Z,88.00
2018-03-23T09:35:09.783Z,88.00
2018-03-23T09:36:06.412Z,88.00
2018-03-23T09:37:11.293Z,87.80
2018-03-23T09:38:05.545Z,87.90
2018-03-23T09:39:06.043Z,87.80
2018-03-23T09:40:06.254Z,87.80
2018-03-23T09:41:06.073Z,87.80
2018-03-23T09:42:06.029Z,87.70
2018-03-23T09:43:08.699Z,87.70
2018-03-23T09:44:06.248Z,87.70
2018-03-23T09:45:06.182Z,87.60
2018-03-23T09:46:06.669Z,87.60
2018-03-23T09:47:10.740Z,87.50
2018-03-23T09:48:08.788Z,87.20
2018-03-23T09:49:09.927Z,87.20
2018-03-23T09:50:05.761Z,87.20
2018-03-23T09:51:05.728Z,87.20
2018-03-23T09:52:06.118Z,87.20
2018-03-23T09:53:10.927Z,87.10
2018-03-23T09:54:06.429Z,87.10
2018-03-23T09:55:08.959Z,86.90
2018-03-23T09:56:09.843Z,86.90
2018-03-23T09:57:10.565Z,86.80
2018-03-23T09:58:09.704Z,86.70
2018-03-23T09:59:06.166Z,86.70
2018-03-23T10:00:11.429Z,86.60
2018-03-23T10:01:06.705Z,86.60
2018-03-23T10:02:08.273Z,86.50
2018-03-23T10:03:05.699Z,86.50
2018-03-23T10:04:06.871Z,86.40
2018-03-23T10:05:06.424Z,86.40
2018-03-23T10:06:06.447Z,86.40
2018-03-23T10:07:06.554Z,86.40
2018-03-23T10:08:06.232Z,86.40
2018-03-23T10:09:05.795Z,86.30
2018-03-23T10:10:05.792Z,86.20
2018-03-23T10:11:15.652Z,85.70
2018-03-23T10:12:06.338Z,85.70
2018-03-23T10:13:08.307Z,85.60
2018-03-23T10:14:05.710Z,85.60
2018-03-23T10:15:06.647Z,85.60
2018-03-23T10:16:06.590Z,85.60
2018-03-23T10:17:06.232Z,85.70
2018-03-23T10:18:10.888Z,85.70
2018-03-23T10:19:09.709Z,85.50
2018-03-23T10:20:06.354Z,85.70
2018-03-23T10:21:06.296Z,85.70
2018-03-23T10:22:08.525Z,85.50
2018-03-23T10:23:05.878Z,85.40
2018-03-23T10:24:06.207Z,85.60
2018-03-23T10:25:05.745Z,85.70
2018-03-23T10:26:06.582Z,85.70
2018-03-23T10:27:10.764Z,85.70
2018-03-23T10:28:11.299Z,85.70
2018-03-23T10:29:06.561Z,85.70
2018-03-23T10:30:10.685Z,85.60
2018-03-23T10:31:06.092Z,85.60
2018-03-23T10:32:06.047Z,85.70
2018-03-23T10:33:06.139Z,85.70
2018-03-23T10:34:14.192Z,85.70
2018-03-23T10:35:05.711Z,85.70
2018-03-23T10:36:05.886Z,85.60
2018-03-23T10:37:11.135Z,85.50
2018-03-23T10:38:05.804Z,85.50
2018-03-23T10:39:06.400Z,85.40
2018-03-23T10:40:08.148Z,85.20
2018-03-23T10:41:10.611Z,85.20
2018-03-23T10:42:06.296Z,85.20
2018-03-23T10:43:06.239Z,84.80
2018-03-23T10:44:06.121Z,84.60
2018-03-23T10:45:05.754Z,84.40
2018-03-23T10:46:05.663Z,84.40
2018-03-23T10:47:06.398Z,84.50
2018-03-23T10:48:09.747Z,84.20
2018-03-23T10:49:09.581Z,84.20
2018-03-23T10:50:06.194Z,84.30
2018-03-23T10:51:08.242Z,84.20
2018-03-23T10:52:10.658Z,84.20
2018-03-23T10:53:05.843Z,84.30
2018-03-23T10:54:05.907Z,84.30
2018-03-23T10:55:11.140Z,84.20
2018-03-23T10:56:08.994Z,84.20
2018-03-23T10:57:05.461Z,84.20
2018-03-23T10:58:11.404Z,84.40
2018-03-23T10:59:06.594Z,84.40
2018-03-23T11:00:08.957Z,84.40
2018-03-23T11:01:06.237Z,84.50
2018-03-23T11:02:06.059Z,84.50
2018-03-23T11:03:10.933Z,84.50
2018-03-23T11:04:08.551Z,84.60
2018-03-23T11:05:05.911Z,84.60
2018-03-23T11:06:11.071Z,84.80
2018-03-23T11:07:06.259Z,84.80
2018-03-23T11:08:11.295Z,84.90
2018-03-23T11:09:09.056Z,85.10
2018-03-23T11:10:05.746Z,85.10
2018-03-23T11:11:06.207Z,85.20
2018-03-23T11:12:09.889Z,85.50
2018-03-23T11:13:11.246Z,85.50
2018-03-23T11:14:05.763Z,85.60
2018-03-23T11:15:06.689Z,85.60
2018-03-23T11:16:08.359Z,85.80
2018-03-23T11:17:05.942Z,85.70
2018-03-23T11:18:09.446Z,85.80
2018-03-23T11:19:08.477Z,85.80
2018-03-23T11:20:05.466Z,85.80
2018-03-23T11:21:05.928Z,85.70
2018-03-23T11:22:06.329Z,85.80
2018-03-23T11:23:09.240Z,85.70
2018-03-23T11:24:13.294Z,85.70
2018-03-23T11:25:05.670Z,85.70
2018-03-23T11:26:11.190Z,85.50
2018-03-23T11:27:05.762Z,85.30
2018-03-23T11:28:08.918Z,85.00
2018-03-23T11:29:06.374Z,85.00
2018-03-23T11:30:06.139Z,84.80
2018-03-23T11:31:06.754Z,84.70
2018-03-23T11:32:10.824Z,84.40
2018-03-23T11:33:15.780Z,84.40
2018-03-23T11:34:06.241Z,84.40
2018-03-23T11:35:05.758Z,84.30
2018-03-23T11:36:09.909Z,84.20
2018-03-23T11:37:05.668Z,84.20
2018-03-23T11:38:09.703Z,84.50
2018-03-23T11:39:06.502Z,84.50
2018-03-23T11:40:06.063Z,84.50
2018-03-23T11:41:10.679Z,84.60
2018-03-23T11:42:08.207Z,84.40
2018-03-23T11:43:06.492Z,84.50
2018-03-23T11:44:06.346Z,84.50
2018-03-23T11:45:06.264Z,84.40
2018-03-23T11:46:11.110Z,84.00
2018-03-23T11:47:06.681Z,84.00
2018-03-23T11:48:06.099Z,83.80
2018-03-23T11:49:06.426Z,83.60
2018-03-23T11:50:06.589Z,83.30
2018-03-23T11:51:06.219Z,83.00
2018-03-23T11:52:10.673Z,83.00
2018-03-23T11:53:05.854Z,83.10
2018-03-23T11:54:05.771Z,83.00
2018-03-23T11:55:05.608Z,82.90
2018-03-23T11:56:08.169Z,82.70
2018-03-23T11:57:05.635Z,82.70
2018-03-23T11:58:06.404Z,82.30
2018-03-23T11:59:06.185Z,82.40
2018-03-23T12:00:05.438Z,82.30
2018-03-23T12:01:06.058Z,81.40
2018-03-23T12:02:06.431Z,81.30
2018-03-23T12:03:05.902Z,81.20
2018-03-23T12:04:06.362Z,81.00
2018-03-23T12:05:09.171Z,81.00
2018-03-23T12:06:05.685Z,81.00
2018-03-23T12:07:06.539Z,80.90
2018-03-23T12:08:05.798Z,80.00
2018-03-23T12:09:11.509Z,80.50
2018-03-23T12:10:10.783Z,80.60
2018-03-23T12:11:06.221Z,80.60
2018-03-23T12:12:06.186Z,80.80
2018-03-23T12:13:09.054Z,80.70
2018-03-23T12:14:05.630Z,80.70
2018-03-23T12:15:06.618Z,80.70
2018-03-23T12:16:05.760Z,80.70
2018-03-23T12:17:08.818Z,80.30
2018-03-23T12:18:06.512Z,80.30
2018-03-23T12:19:05.421Z,80.20
2018-03-23T12:20:06.097Z,80.20
2018-03-23T12:21:05.642Z,79.70
2018-03-23T12:22:05.950Z,79.50
2018-03-23T12:23:09.407Z,79.10
2018-03-23T12:24:06.055Z,79.10
2018-03-23T12:25:08.169Z,78.10
2018-03-23T12:26:05.646Z,78.10
2018-03-23T12:27:07.492Z,78.00
2018-03-23T12:28:05.784Z,78.00
2018-03-23T12:29:05.897Z,77.40
2018-03-23T12:30:06.231Z,77.50
2018-03-23T12:31:05.855Z,77.60
2018-03-23T12:32:05.591Z,77.80
2018-03-23T12:33:05.624Z,77.50
2018-03-23T12:34:06.326Z,77.10
2018-03-23T12:35:05.861Z,77.40
2018-03-23T12:36:06.170Z,77.40
2018-03-23T12:37:06.830Z,77.40
2018-03-23T12:38:11.742Z,77.20
2018-03-23T12:39:05.727Z,77.20
2018-03-23T12:40:08.584Z,77.40
2018-03-23T12:41:06.144Z,77.40
2018-03-23T12:42:07.145Z,77.30
2018-03-23T12:43:11.500Z,76.10
2018-03-23T12:44:10.430Z,76.10
2018-03-23T12:45:05.799Z,76.30
2018-03-23T12:46:05.750Z,76.10
2018-03-23T12:47:06.069Z,76.20
2018-03-23T12:48:11.043Z,75.00
2018-03-23T12:49:06.250Z,75.00
2018-03-23T12:50:11.348Z,74.60
2018-03-23T12:51:10.476Z,74.40
2018-03-23T12:52:05.938Z,74.40